Time;durP1;ratioP1;P1;durP2;ratioP2;P2;SDS_P1;SDS_P2;PMS_P1;PMS_P2;Temp;Humidity;BMP_temperature;BMP_pressure;BME280_temperature;BME280_humidity;BME280_pressure;Samples;Min_cycle;Max_cycle;Signal;HPM_P1;HPM_P2
2021/01/08 00:00:31;;;;;;;15.77;11.10;;;;;;;-145.61;100.00;68426.72;4981445;28;20319;-88
2021/01/08 00:02:56;;;;;;;17.88;11.02;;;;;;;-145.61;100.00;68426.72;4993462;28;20124;-88
2021/01/08 00:05:22;;;;;;;17.02;10.50;;;;;;;-145.61;100.00;68426.72;4997192;28;20034;-88
2021/01/08 00:07:47;;;;;;;15.25;9.95;;;;;;;-145.61;100.00;68426.72;4997056;28;20077;-88
2021/01/08 00:10:12;;;;;;;15.38;9.82;;;;;;;-145.61;100.00;68426.72;4985732;28;20030;-88
2021/01/08 00:12:38;;;;;;;14.73;10.00;;;;;;;-145.61;100.00;68426.72;4984597;28;20038;-88
2021/01/08 00:15:05;;;;;;;14.18;9.65;;;;;;;-145.61;100.00;68426.72;4988330;28;20053;-88
2021/01/08 00:17:31;;;;;;;16.70;9.35;;;;;;;-145.61;100.00;68426.72;5015804;28;20022;-88
2021/01/08 00:19:56;;;;;;;13.00;9.05;;;;;;;-145.61;100.00;68426.72;5003976;28;20027;-88
2021/01/08 00:22:23;;;;;;;14.80;9.88;;;;;;;-145.61;100.00;68426.72;5003170;28;20054;-88
2021/01/08 00:24:49;;;;;;;16.80;9.70;;;;;;;-145.61;100.00;68426.72;5020536;28;20018;-88
2021/01/08 00:27:15;;;;;;;16.48;9.25;;;;;;;-145.61;100.00;68426.72;4999620;28;20176;-87
2021/01/08 00:29:41;;;;;;;14.98;9.00;;;;;;;-145.61;100.00;68426.72;5000727;28;20453;-88
2021/01/08 00:32:09;;;;;;;12.73;7.65;;;;;;;-145.61;100.00;68426.72;5000506;28;20038;-87
2021/01/08 00:34:34;;;;;;;12.25;7.78;;;;;;;-145.61;100.00;68426.72;5010085;28;20026;-87
2021/01/08 00:37:00;;;;;;;10.25;6.82;;;;;;;-145.61;100.00;68426.72;5020233;28;20038;-87
2021/01/08 00:39:26;;;;;;;9.57;7.00;;;;;;;-145.61;100.00;68426.72;5010836;28;20033;-87
2021/01/08 00:41:52;;;;;;;9.50;7.15;;;;;;;-145.61;100.00;68426.72;4990505;28;20113;-86
2021/01/08 00:44:17;;;;;;;12.93;8.68;;;;;;;-145.61;100.00;68426.72;4980042;28;20386;-88
2021/01/08 00:46:46;;;;;;;12.20;8.93;;;;;;;-145.61;100.00;68426.72;4980272;28;20035;-88
2021/01/08 00:49:12;;;;;;;11.10;8.35;;;;;;;-145.61;100.00;68426.72;4980086;28;20035;-88
2021/01/08 00:51:38;;;;;;;10.93;7.80;;;;;;;-145.61;100.00;68426.72;4980122;28;20057;-88
2021/01/08 00:54:05;;;;;;;11.88;7.82;;;;;;;-145.61;100.00;68426.72;5009171;28;20030;-88
2021/01/08 00:56:31;;;;;;;9.38;6.85;;;;;;;-145.61;100.00;68426.72;5018925;28;20025;-89
2021/01/08 00:58:57;;;;;;;10.40;6.55;;;;;;;-145.61;100.00;68426.72;5009215;28;20091;-88
2021/01/08 01:01:23;;;;;;;11.30;6.70;;;;;;;-145.61;100.00;68426.72;4999320;28;20137;-88
2021/01/08 01:03:49;;;;;;;9.13;6.53;;;;;;;-145.61;100.00;68426.72;4999127;28;20022;-88
2021/01/08 01:06:25;;;;;;;7.70;6.03;;;;;;;-145.61;100.00;68426.72;5000176;28;20026;-89
2021/01/08 01:08:50;;;;;;;8.30;5.57;;;;;;;-145.61;100.00;68426.72;4980623;28;20411;-88
2021/01/08 01:11:17;;;;;;;7.78;5.53;;;;;;;-145.61;100.00;68426.72;4982342;28;20022;-88
2021/01/08 01:13:43;;;;;;;7.25;5.53;;;;;;;-145.61;100.00;68426.72;4998884;28;20509;-88
2021/01/08 01:16:09;;;;;;;11.20;5.75;;;;;;;-145.61;100.00;68426.72;4998207;28;20109;-88
2021/01/08 01:18:34;;;;;;;6.70;5.25;;;;;;;-145.61;100.00;68426.72;4980289;28;20109;-88
2021/01/08 01:21:00;;;;;;;10.60;5.55;;;;;;;-145.61;100.00;68426.72;4979548;28;20034;-88
2021/01/08 01:23:25;;;;;;;7.30;5.03;;;;;;;-145.61;100.00;68426.72;4979129;28;20058;-88
2021/01/08 01:25:50;;;;;;;7.15;5.15;;;;;;;-145.61;100.00;68426.72;4992939;28;20019;-87
2021/01/08 01:28:16;;;;;;;8.27;5.40;;;;;;;-145.61;100.00;68426.72;4982539;28;20041;-88
2021/01/08 01:30:41;;;;;;;8.98;5.80;;;;;;;-145.61;100.00;68426.72;4984121;28;20402;-88
2021/01/08 01:33:07;;;;;;;11.30;6.07;;;;;;;-145.61;100.00;68426.72;4998591;28;20030;-88
2021/01/08 01:35:32;;;;;;;7.70;5.40;;;;;;;-145.61;100.00;68426.72;4994655;28;20038;-88
2021/01/08 01:37:58;;;;;;;7.10;5.05;;;;;;;-145.61;100.00;68426.72;4998474;28;20014;-88
2021/01/08 01:40:23;;;;;;;6.72;5.20;;;;;;;-145.61;100.00;68426.72;4999097;28;20036;-89
2021/01/08 01:42:49;;;;;;;9.85;5.55;;;;;;;-145.61;100.00;68426.72;4998489;28;20109;-88
2021/01/08 01:45:14;;;;;;;7.72;5.30;;;;;;;-145.61;100.00;68426.72;4990606;28;20113;-88
2021/01/08 01:47:41;;;;;;;8.32;5.45;;;;;;;-145.61;100.00;68426.72;4978974;28;20498;-88
2021/01/08 01:50:08;;;;;;;7.63;5.38;;;;;;;-145.61;100.00;68426.72;4995052;28;20414;-86
2021/01/08 01:52:35;;;;;;;7.25;5.70;;;;;;;-145.61;100.00;68426.72;4979967;28;20125;-88
2021/01/08 01:55:02;;;;;;;7.40;5.03;;;;;;;-145.61;100.00;68426.72;4978541;28;20022;-87
2021/01/08 01:57:27;;;;;;;9.57;5.90;;;;;;;1.53;66.66;95706.47;4985454;28;20022;-88
2021/01/08 01:59:53;;;;;;;8.55;5.70;;;;;;;1.53;66.66;95706.47;4979630;28;20465;-88
2021/01/08 02:02:23;;;;;;;7.15;5.65;;;;;;;1.53;66.66;95706.47;4990013;28;20034;-88
2021/01/08 02:04:50;;;;;;;;;;;;;;;-145.61;100.00;68426.72;4999089;28;20338;-88
2021/01/08 02:07:16;;;;;;;8.85;5.65;;;;;;;-145.61;100.00;68426.72;4984342;28;19914;-88
2021/01/08 02:09:42;;;;;;;9.48;5.72;;;;;;;-145.61;100.00;68426.72;4979391;28;20035;-88
2021/01/08 02:12:08;;;;;;;6.85;5.63;;;;;;;-145.61;100.00;68426.72;4991464;28;20366;-88
2021/01/08 02:14:35;;;;;;;9.13;6.05;;;;;;;-145.61;100.00;68426.72;4998809;28;20026;-88
2021/01/08 02:17:03;;;;;;;9.23;6.10;;;;;;;-145.61;100.00;68426.72;4997941;28;20108;-89
2021/01/08 02:19:33;;;;;;;8.30;6.20;;;;;;;-145.61;100.00;68426.72;4982555;28;20078;-89
2021/01/08 02:22:11;;;;;;;9.73;6.50;;;;;;;1.53;66.66;95706.47;4979346;28;20399;-88
2021/01/08 02:24:43;;;;;;;9.85;6.85;;;;;;;-145.61;100.00;68426.72;4987006;28;20034;-88
2021/01/08 02:27:08;;;;;;;11.25;7.20;;;;;;;-145.61;100.00;68426.72;4982959;28;20023;-88
2021/01/08 02:29:34;;;;;;;10.43;6.47;;;;;;;-145.61;100.00;68426.72;4998511;28;20073;-88
2021/01/08 02:32:01;;;;;;;8.80;6.43;;;;;;;-145.61;100.00;68426.72;4998551;28;20030;-89
2021/01/08 02:34:26;;;;;;;9.10;6.32;;;;;;;-145.61;100.00;68426.72;4998521;28;20461;-88
2021/01/08 02:36:52;;;;;;;13.52;8.23;;;;;;;-145.61;100.00;68426.72;4998323;28;20028;-88
2021/01/08 02:39:19;;;;;;;10.88;6.35;;;;;;;0.24;71.93;95707.25;4998376;28;20465;-88
2021/01/08 02:41:47;;;;;;;10.07;7.50;;;;;;;0.41;73.63;95722.22;4997255;28;20113;-88
2021/01/08 02:44:15;;;;;;;13.00;7.95;;;;;;;0.11;72.71;95675.00;4985302;28;20026;-88
2021/01/08 02:46:42;;;;;;;12.50;8.38;;;;;;;0.11;72.71;95675.00;4992527;28;20030;-88
2021/01/08 02:49:07;;;;;;;12.52;8.50;;;;;;;0.11;72.71;95675.00;4978827;28;20027;-88
2021/01/08 02:51:33;;;;;;;13.93;8.73;;;;;;;0.11;72.71;95675.00;4978015;28;20027;-88
2021/01/08 02:53:59;;;;;;;7.72;5.65;;;;;;;0.11;72.71;95675.00;4977958;28;20031;-88
2021/01/08 02:56:32;;;;;;;9.25;6.63;;;;;;;0.11;72.71;95675.00;4978764;28;20413;-88
2021/01/08 02:58:58;;;;;;;8.52;6.28;;;;;;;0.11;72.71;95675.00;4996184;28;20030;-88
2021/01/08 03:01:24;;;;;;;9.52;6.75;;;;;;;0.11;72.71;95675.00;4996827;28;20484;-88
2021/01/08 03:03:50;;;;;;;7.68;5.95;;;;;;;0.11;72.71;95675.00;4981465;28;20035;-88
2021/01/08 03:06:16;;;;;;;10.70;6.35;;;;;;;0.11;72.71;95675.00;4978533;28;20126;-88
2021/01/08 03:08:42;;;;;;;11.07;6.70;;;;;;;0.42;74.60;95731.75;4984986;28;20025;-88
2021/01/08 03:11:09;;;;;;;10.27;6.38;;;;;;;0.35;73.89;95725.78;4997077;28;20033;-88
2021/01/08 03:13:37;;;;;;;8.77;5.93;;;;;;;0.55;74.71;95749.91;4997877;28;20026;-88
2021/01/08 03:16:03;;;;;;;9.77;6.43;;;;;;;-0.24;74.11;95654.94;4996595;28;20022;-88
2021/01/08 03:18:38;;;;;;;7.93;6.03;;;;;;;-0.24;74.11;95654.94;4997899;28;20022;-89
2021/01/08 03:21:04;;;;;;;8.02;5.60;;;;;;;-0.24;74.11;95654.94;4995519;28;20034;-88
2021/01/08 03:23:29;;;;;;;7.72;6.03;;;;;;;0.16;71.55;95697.81;4978230;28;20053;-88
2021/01/08 03:25:54;;;;;;;8.25;6.00;;;;;;;0.16;71.55;95697.81;4977345;28;20033;-89
2021/01/08 03:28:20;;;;;;;9.02;6.55;;;;;;;0.16;71.55;95697.81;4977276;28;20355;-88
2021/01/08 03:30:45;;;;;;;10.23;7.43;;;;;;;0.16;71.55;95697.81;4978327;28;20035;-88
2021/01/08 03:33:11;;;;;;;11.68;8.07;;;;;;;0.16;71.55;95697.81;4997152;28;20407;-87
2021/01/08 03:35:36;;;;;;;11.45;7.85;;;;;;;0.16;71.55;95697.81;4997370;28;20076;-89
2021/01/08 03:38:02;;;;;;;13.98;8.27;;;;;;;0.51;72.98;95752.63;4996342;28;20109;-88
2021/01/08 03:40:27;;;;;;;14.05;8.30;;;;;;;0.41;73.87;95742.84;4997677;28;20030;-88
2021/01/08 03:42:52;;;;;;;12.95;8.27;;;;;;;0.40;74.63;95744.03;4989056;28;20026;-88
2021/01/08 03:45:18;;;;;;;11.23;7.53;;;;;;;0.41;73.75;95737.50;4977984;28;20053;-88
2021/01/08 03:47:43;;;;;;;10.48;7.47;;;;;;;0.26;100.00;95708.34;4994681;28;20031;-88
2021/01/08 03:50:09;;;;;;;12.98;8.50;;;;;;;0.33;74.04;95717.44;4997529;28;20355;-88
2021/01/08 03:52:35;;;;;;;12.68;8.02;;;;;;;0.33;75.07;95714.75;4994392;28;20033;-88
2021/01/08 03:55:00;;;;;;;12.20;8.23;;;;;;;0.33;75.07;95714.75;4992169;28;20109;-88
2021/01/08 03:57:25;;;;;;;12.35;8.35;;;;;;;0.33;75.07;95714.75;4981018;28;20303;-88
2021/01/08 03:59:52;;;;;;;12.35;8.20;;;;;;;0.45;75.26;95741.66;4980681;28;20058;-89
2021/01/08 04:02:17;;;;;;;12.23;8.50;;;;;;;0.33;73.94;95722.78;4982230;28;20019;-88
2021/01/08 04:04:43;;;;;;;13.95;8.45;;;;;;;0.28;74.69;95713.28;5000160;28;20022;-88
2021/01/08 04:07:08;;;;;;;11.43;8.52;;;;;;;-145.61;100.00;68426.72;4992296;28;20110;-88
2021/01/08 04:09:33;;;;;;;12.05;8.82;;;;;;;0.17;75.23;95699.34;4981003;28;20038;-88
2021/01/08 04:11:59;;;;;;;10.85;8.30;;;;;;;0.57;74.14;95756.34;4981696;28;20031;-89
2021/01/08 04:14:25;;;;;;;11.55;8.23;;;;;;;0.19;73.12;95724.47;4996804;28;20066;-88
2021/01/08 04:16:50;;;;;;;11.35;8.05;;;;;;;0.25;72.84;95717.50;4980730;28;20030;-88
2021/01/08 04:19:16;;;;;;;11.93;8.18;;;;;;;-145.61;100.00;68426.72;4989505;28;20030;-89
2021/01/08 04:21:45;;;;;;;12.13;8.70;;;;;;;0.19;70.74;95710.38;4999853;28;20026;-88
2021/01/08 04:24:11;;;;;;;11.88;8.27;;;;;;;0.19;70.74;95710.38;5000762;28;20497;-88
2021/01/08 04:26:37;;;;;;;11.63;8.10;;;;;;;0.45;73.83;95728.28;4980256;28;20054;-88
2021/01/08 04:29:02;;;;;;;11.85;7.72;;;;;;;0.21;73.85;95710.72;4980405;28;20403;-88
2021/01/08 04:31:28;;;;;;;11.27;8.10;;;;;;;0.22;74.93;95706.91;4990783;28;20802;-88
2021/01/08 04:33:53;;;;;;;11.70;8.60;;;;;;;0.09;74.73;95684.56;4999399;28;20414;-88
2021/01/08 04:36:18;;;;;;;11.88;8.40;;;;;;;0.03;74.79;95688.88;4999642;28;20030;-88
2021/01/08 04:38:44;;;;;;;11.35;8.68;;;;;;;-0.10;75.45;95670.75;4995153;28;20403;-88
2021/01/08 04:41:10;;;;;;;12.52;8.27;;;;;;;0.52;75.17;95770.94;4987552;28;20065;-88
2021/01/08 04:43:36;;;;;;;14.52;8.48;;;;;;;0.03;76.04;95699.56;4990949;28;20035;-89
2021/01/08 04:46:16;;;;;;;14.10;8.75;;;;;;;0.47;74.92;95771.38;5000553;28;20026;-88
2021/01/08 04:48:42;;;;;;;12.73;8.27;;;;;;;0.31;74.43;95747.19;4979840;28;20078;-88
2021/01/08 04:51:10;;;;;;;11.82;8.82;;;;;;;0.30;76.25;95740.34;4980032;28;20074;-88
2021/01/08 04:53:36;;;;;;;12.57;8.82;;;;;;;0.17;75.86;95720.72;4985907;28;20080;-89
2021/01/08 04:56:05;;;;;;;10.77;8.55;;;;;;;0.47;75.62;95768.72;4993140;28;20029;-88
2021/01/08 04:58:32;;;;;;;13.10;8.65;;;;;;;0.23;75.64;95732.44;4997063;28;20330;-88
2021/01/08 05:01:02;;;;;;;13.77;9.27;;;;;;;0.42;75.04;95771.84;4987242;28;20393;-88
2021/01/08 05:03:29;;;;;;;13.00;9.27;;;;;;;0.31;75.93;95754.47;4992027;28;20470;-88
2021/01/08 05:05:55;;;;;;;11.88;8.55;;;;;;;0.38;75.13;95757.81;5000243;28;20089;-88
2021/01/08 05:08:21;;;;;;;12.65;9.27;;;;;;;0.22;74.95;95728.28;5000063;28;20029;-88
2021/01/08 05:10:46;;;;;;;12.90;9.10;;;;;;;0.12;76.04;95711.25;4999315;28;20034;-88
2021/01/08 05:13:12;;;;;;;12.60;9.07;;;;;;;-0.01;76.34;95700.34;5000205;28;20410;-88
2021/01/08 05:15:38;;;;;;;12.48;9.25;;;;;;;0.14;75.23;95714.25;4990912;28;20026;-88
2021/01/08 05:18:04;;;;;;;11.85;8.95;;;;;;;-0.09;75.96;95682.94;4995535;28;20474;-88
2021/01/08 05:20:30;;;;;;;13.63;9.45;;;;;;;0.06;76.42;95720.88;4980442;28;20162;-88
2021/01/08 05:22:57;;;;;;;12.70;9.25;;;;;;;0.25;76.18;95754.91;4991168;28;20046;-89
2021/01/08 05:25:22;;;;;;;12.85;8.85;;;;;;;-0.06;75.63;95708.06;4983387;28;20042;-88
2021/01/08 05:27:49;;;;;;;13.05;9.35;;;;;;;0.13;76.44;95744.81;4981777;28;20030;-88
2021/01/08 05:30:19;;;;;;;12.38;8.98;;;;;;;0.21;76.48;95746.22;4993071;28;20038;-88
2021/01/08 05:32:45;;;;;;;12.27;8.73;;;;;;;-0.15;76.11;95699.81;5006274;28;20457;-88
2021/01/08 05:35:15;;;;;;;12.93;9.23;;;;;;;-0.09;76.73;95708.88;5005957;28;20062;-89
2021/01/08 05:37:45;;;;;;;11.23;8.23;;;;;;;0.05;75.53;95734.59;5002166;28;20026;-89
2021/01/08 05:40:13;;;;;;;10.07;7.43;;;;;;;0.12;76.86;95751.31;4982947;28;20138;-89
2021/01/08 05:42:59;;;;;;;10.25;7.82;;;;;;;-0.28;76.24;95705.69;4983306;28;20068;-89
2021/01/08 05:45:26;;;;;;;10.02;7.78;;;;;;;-0.15;75.99;95729.19;4981723;28;21537;-88
2021/01/08 05:47:56;;;;;;;11.48;8.50;;;;;;;-0.01;76.56;95751.09;5010690;28;20057;-89
2021/01/08 05:50:23;;;;;;;10.80;7.75;;;;;;;-0.04;77.73;95753.81;5014671;28;20283;-89
2021/01/08 05:53:05;;;;;;;12.30;8.43;;;;;;;-0.10;77.10;95761.53;4994873;28;20033;-88
2021/01/08 05:55:39;;;;;;;23.30;15.70;;;;;;;-0.36;76.55;95714.19;4999364;28;20033;-88
2021/01/08 05:58:21;;;;;;;20.90;14.48;;;;;;;-0.43;77.24;95699.00;4998229;28;20018;-89
2021/01/08 06:01:01;;;;;;;23.98;16.52;;;;;;;-0.39;76.97;95715.00;4988632;28;20038;-88
2021/01/08 06:03:27;;;;;;;24.00;16.55;;;;;;;-0.36;77.40;95727.53;4979623;28;20175;-88
2021/01/08 06:05:54;;;;;;;24.40;17.20;;;;;;;-0.19;77.56;95747.16;4978645;28;20078;-89
2021/01/08 06:08:30;;;;;;;19.25;13.15;;;;;;;-0.19;78.17;95747.16;4988404;28;20035;-89
2021/01/08 06:10:59;;;;;;;19.13;12.85;;;;;;;-0.63;77.83;95693.56;5000270;28;20029;-87
2021/01/08 06:13:29;;;;;;;18.77;12.40;;;;;;;-0.28;77.74;95735.03;5017587;28;20030;-87
2021/01/08 06:15:56;;;;;;;19.37;14.57;;;;;;;-0.38;77.79;95732.50;5003931;28;20093;-88
2021/01/08 06:18:24;;;;;;;18.73;13.35;;;;;;;-0.81;77.35;95659.09;4986183;28;20437;-88
2021/01/08 06:20:52;;;;;;;18.95;13.57;;;;;;;-0.33;77.44;95745.41;4993862;28;20406;-87
2021/01/08 06:23:46;;;;;;;21.55;15.25;;;;;;;-0.43;78.63;95744.38;4997222;28;20383;-88
2021/01/08 06:26:19;;;;;;;21.17;15.77;;;;;;;-0.50;79.05;95731.13;5000772;28;20405;-87
2021/01/08 06:28:50;;;;;;;19.27;14.70;;;;;;;-0.47;76.84;95738.34;4993494;28;20431;-87
2021/01/08 06:31:21;;;;;;;19.20;14.25;;;;;;;-0.50;77.65;95746.41;4993721;28;20109;-87
2021/01/08 06:33:54;;;;;;;18.27;13.05;;;;;;;-0.55;77.39;95742.25;4989877;28;20439;-88
2021/01/08 06:36:24;;;;;;;20.25;13.05;;;;;;;-1.02;77.77;95683.34;4978963;28;20031;-88
2021/01/08 06:38:54;;;;;;;;;;;;;;;-0.58;79.00;95745.72;4979220;28;20087;-87
2021/01/08 06:41:20;;;;;;;19.17;11.20;;;;;;;-1.00;78.67;95685.63;4977879;28;19933;-87
2021/01/08 06:43:48;;;;;;;17.15;11.40;;;;;;;-0.94;78.81;95700.78;4992356;28;20414;-88
2021/01/08 06:46:30;;;;;;;17.58;11.60;;;;;;;-0.87;77.98;95727.34;5008583;28;20021;-89
2021/01/08 06:48:58;;;;;;;17.15;12.15;;;;;;;-0.59;79.67;95746.88;4991442;28;20114;-88
2021/01/08 06:51:29;;;;;;;20.50;13.15;;;;;;;-0.80;78.17;95719.31;4986651;28;20030;-87
2021/01/08 06:53:57;;;;;;;21.80;13.85;;;;;;;-0.87;79.57;95721.28;4998802;28;20081;-88
2021/01/08 06:56:27;;;;;;;27.25;16.27;;;;;;;-0.55;80.24;95745.66;5001750;28;20029;-88
2021/01/08 06:58:57;;;;;;;34.72;19.75;;;;;;;-0.60;79.22;95754.13;4994787;28;20112;-87
2021/01/08 07:01:45;;;;;;;43.35;24.15;;;;;;;-1.02;79.12;95687.91;5017391;28;20056;-87
2021/01/08 07:04:12;;;;;;;47.08;26.80;;;;;;;-0.66;79.35;95747.72;5015756;28;20034;-86
2021/01/08 07:06:38;;;;;;;44.50;27.08;;;;;;;-1.00;78.95;95705.03;4977291;28;20351;-86
2021/01/08 07:09:17;;;;;;;39.25;25.50;;;;;;;-0.67;79.72;95758.78;4981661;28;20026;-85
2021/01/08 07:11:42;;;;;;;41.08;26.27;;;;;;;-0.93;79.44;95709.53;4988049;28;20113;-86
2021/01/08 07:14:22;;;;;;;36.60;25.25;;;;;;;-0.64;79.24;95766.75;4991137;28;20363;-86
2021/01/08 07:16:49;;;;;;;39.65;24.60;;;;;;;-0.75;79.06;95749.34;4981545;28;20122;-87
2021/01/08 07:19:18;;;;;;;43.92;25.70;;;;;;;-0.54;79.34;95768.53;4993572;28;20030;-86
2021/01/08 07:21:51;;;;;;;41.67;24.67;;;;;;;-0.52;78.22;95776.16;4991763;28;20034;-87
2021/01/08 07:24:22;;;;;;;44.38;24.77;;;;;;;-0.43;78.45;95770.31;4984299;28;20085;-87
2021/01/08 07:26:48;;;;;;;39.60;26.25;;;;;;;-0.71;79.00;95732.13;4986140;28;20146;-87
2021/01/08 07:29:14;;;;;;;42.20;26.98;;;;;;;-0.46;79.45;95763.13;4996348;28;20094;-86
2021/01/08 07:31:40;;;;;;;39.15;23.75;;;;;;;-0.33;78.34;95780.88;4991983;28;20029;-86
2021/01/08 07:34:09;;;;;;;39.25;21.88;;;;;;;-0.72;76.90;95711.97;4979900;28;20034;-84
2021/01/08 07:36:35;;;;;;;36.42;22.60;;;;;;;-0.18;76.64;95776.09;4996975;28;20022;-84
2021/01/08 07:39:03;;;;;;;36.72;21.60;;;;;;;-0.15;76.30;95783.34;4983972;28;20031;-88
2021/01/08 07:41:39;;;;;;;28.23;17.42;;;;;;;-0.21;76.33;95776.94;4988179;28;20027;-87
2021/01/08 07:44:33;;;;;;;28.10;18.05;;;;;;;-0.18;75.46;95781.44;4989963;28;20105;-87
2021/01/08 07:47:21;;;;;;;21.77;14.40;;;;;;;-0.12;75.18;95781.75;4976162;28;20042;-87
2021/01/08 07:50:04;;;;;;;22.75;13.32;;;;;;;-0.07;75.96;95783.97;4984126;28;20026;-87
2021/01/08 07:52:42;;;;;;;17.55;12.40;;;;;;;-0.24;74.08;95758.28;4997434;28;20026;-87
2021/01/08 07:55:09;;;;;;;17.13;12.13;;;;;;;0.03;74.00;95790.34;4983741;28;20034;-87
2021/01/08 07:58:05;;;;;;;24.17;15.80;;;;;;;0.07;75.57;95802.50;4996924;28;20041;-87
2021/01/08 08:00:32;;;;;;;23.17;14.15;;;;;;;-0.22;77.24;95746.03;4985842;28;20030;-86
2021/01/08 08:02:59;;;;;;;33.63;17.00;;;;;;;0.15;76.08;95806.56;4976959;28;20170;-86
2021/01/08 08:05:27;;;;;;;24.60;15.48;;;;;;;-0.06;74.26;95762.22;4983654;28;20037;-86
2021/01/08 08:07:56;;;;;;;24.05;15.93;;;;;;;0.07;74.03;95783.06;4976591;28;20027;-86
2021/01/08 08:10:26;;;;;;;26.85;16.88;;;;;;;-0.15;74.06;95745.19;4978689;28;20022;-88
2021/01/08 08:12:52;;;;;;;26.40;18.97;;;;;;;0.27;76.51;95815.97;4992023;28;20422;-86
2021/01/08 08:15:18;;;;;;;35.05;23.00;;;;;;;-0.17;74.04;95758.19;4986272;28;20019;-86
2021/01/08 08:17:44;;;;;;;31.30;21.95;;;;;;;-0.27;73.68;95741.91;4983084;28;20034;-86
2021/01/08 08:20:18;;;;;;;26.90;17.15;;;;;;;-0.18;72.70;95744.06;4992990;28;20050;-87
2021/01/08 08:22:43;;;;;;;21.15;15.52;;;;;;;0.17;72.59;95795.50;4991845;28;20133;-88
2021/01/08 08:25:26;;;;;;;18.08;13.30;;;;;;;0.06;73.20;95762.84;4995663;28;20107;-86
2021/01/08 08:27:53;;;;;;;13.13;9.20;;;;;;;0.05;71.82;95764.75;4994487;28;20314;-88
2021/01/08 08:30:19;;;;;;;14.88;10.35;;;;;;;0.06;71.51;95752.16;4992111;28;20037;-90
2021/01/08 08:32:45;;;;;;;14.40;10.57;;;;;;;0.34;71.81;95783.81;4987684;28;20038;-89
2021/01/08 08:35:11;;;;;;;12.80;9.25;;;;;;;0.55;70.25;95816.72;4991844;28;20081;-85
2021/01/08 08:37:53;;;;;;;16.40;10.18;;;;;;;-0.18;69.47;95689.94;4994859;28;20418;-85
2021/01/08 08:40:25;;;;;;;19.10;10.90;;;;;;;0.65;70.70;95813.13;4996274;28;20445;-88
2021/01/08 08:42:59;;;;;;;12.10;8.90;;;;;;;0.65;70.70;95813.13;4990879;28;20066;-88
2021/01/08 08:45:29;;;;;;;12.50;8.13;;;;;;;0.67;70.04;95808.88;4999502;28;20030;-87
2021/01/08 08:47:56;;;;;;;13.93;9.95;;;;;;;0.67;70.04;95808.88;4994302;28;20058;-87
2021/01/08 08:50:24;;;;;;;15.13;10.15;;;;;;;0.67;70.04;95808.88;4998235;28;20042;-85
2021/01/08 08:52:50;;;;;;;16.33;10.48;;;;;;;0.67;70.04;95808.88;4997579;28;20037;-85
2021/01/08 08:55:29;;;;;;;15.45;10.20;;;;;;;0.67;70.04;95808.88;4986204;28;20034;-87
2021/01/08 08:58:00;;;;;;;15.05;9.95;;;;;;;0.95;69.90;95842.44;4987549;28;20118;-85
2021/01/08 09:00:26;;;;;;;13.93;9.32;;;;;;;1.01;70.06;95837.38;4983434;28;20031;-86
2021/01/08 09:02:53;;;;;;;13.02;9.38;;;;;;;0.52;68.67;95759.47;4982321;28;20022;-88
2021/01/08 09:05:19;;;;;;;13.65;8.80;;;;;;;1.14;69.70;95842.94;4987947;28;20414;-86
2021/01/08 09:07:50;;;;;;;10.23;8.10;;;;;;;1.11;68.75;95836.44;4983697;28;20031;-87
2021/01/08 09:10:19;;;;;;;12.00;7.88;;;;;;;-145.61;100.00;68426.72;4991765;28;20121;-86
2021/01/08 09:12:53;;;;;;;11.60;8.35;;;;;;;1.19;69.37;95834.44;4988773;28;20042;-86
2021/01/08 09:15:33;;;;;;;12.02;8.30;;;;;;;-145.61;100.00;68426.72;4986118;28;20093;-85
2021/01/08 09:18:10;;;;;;;9.53;7.50;;;;;;;1.21;69.17;95832.84;4982388;28;20022;-85
2021/01/08 09:20:49;;;;;;;8.80;7.05;;;;;;;-145.61;100.00;68426.72;4998586;28;20317;-84
2021/01/08 09:23:15;;;;;;;9.75;6.88;;;;;;;-145.61;100.00;68426.72;4993494;28;20053;-84
2021/01/08 09:25:41;;;;;;;10.60;7.25;;;;;;;-145.61;100.00;68426.72;4988467;28;20022;-85
2021/01/08 09:28:06;;;;;;;9.73;7.15;;;;;;;-145.61;100.00;68426.72;4996246;28;20308;-87
2021/01/08 09:30:32;;;;;;;12.02;7.78;;;;;;;-145.61;100.00;68426.72;4995920;28;20026;-85
2021/01/08 09:32:57;;;;;;;11.55;7.57;;;;;;;-145.61;100.00;68426.72;4981500;28;20331;-85
2021/01/08 09:35:23;;;;;;;26.00;13.70;;;;;;;-145.61;100.00;68426.72;4979935;28;20057;-84
2021/01/08 09:37:51;;;;;;;23.67;14.38;;;;;;;-145.61;100.00;68426.72;4979721;28;20015;-85
2021/01/08 09:40:18;;;;;;;11.88;7.45;;;;;;;-145.61;100.00;68426.72;4985827;28;20053;-85
2021/01/08 09:42:45;;;;;;;10.85;7.20;;;;;;;-145.61;100.00;68426.72;4989672;28;20030;-85
2021/01/08 09:45:19;;;;;;;11.65;7.93;;;;;;;-145.61;100.00;68426.72;4989488;28;20026;-85
2021/01/08 09:47:45;;;;;;;10.20;6.55;;;;;;;-145.61;100.00;68426.72;4994606;28;20041;-85
2021/01/08 09:50:21;;;;;;;12.77;8.20;;;;;;;-145.61;100.00;68426.72;4997479;28;20084;-84
2021/01/08 09:52:48;;;;;;;12.95;8.48;;;;;;;-145.61;100.00;68426.72;4990251;28;20026;-85
2021/01/08 09:55:28;;;;;;;15.10;9.43;;;;;;;-145.61;100.00;68426.72;4994291;28;20085;-84
2021/01/08 09:57:58;;;;;;;14.18;8.68;;;;;;;-145.61;100.00;68426.72;4979199;28;20411;-85
2021/01/08 10:00:36;;;;;;;17.60;10.68;;;;;;;-145.61;100.00;68426.72;4981039;28;20054;-85
2021/01/08 10:03:03;;;;;;;12.45;8.52;;;;;;;-145.61;100.00;68426.72;4978068;28;20031;-85
2021/01/08 10:05:30;;;;;;;12.68;8.43;;;;;;;-145.61;100.00;68426.72;4993981;28;20426;-84
2021/01/08 10:07:58;;;;;;;12.73;8.02;;;;;;;-145.61;100.00;68426.72;4978078;28;20027;-84
2021/01/08 10:10:26;;;;;;;13.98;8.55;;;;;;;-145.61;100.00;68426.72;4978203;28;20419;-85
2021/01/08 10:12:53;;;;;;;14.25;9.35;;;;;;;-145.61;100.00;68426.72;4985963;28;20034;-84
2021/01/08 10:15:19;;;;;;;11.63;9.20;;;;;;;-145.61;100.00;68426.72;4986583;28;20034;-84
2021/01/08 10:17:50;;;;;;;13.88;9.15;;;;;;;-145.61;100.00;68426.72;4977953;28;20022;-84
2021/01/08 10:20:24;;;;;;;13.43;9.73;;;;;;;-145.61;100.00;68426.72;4978794;28;20441;-84
2021/01/08 10:22:51;;;;;;;14.65;9.40;;;;;;;-145.61;100.00;68426.72;4983648;28;20066;-85
2021/01/08 10:25:23;;;;;;;14.55;9.88;;;;;;;-145.61;100.00;68426.72;4980981;28;20031;-84
2021/01/08 10:27:49;;;;;;;15.13;9.77;;;;;;;-145.61;100.00;68426.72;4982531;28;20027;-84
2021/01/08 10:30:15;;;;;;;17.25;9.52;;;;;;;-145.61;100.00;68426.72;4978204;28;20094;-84
2021/01/08 10:32:45;;;;;;;13.13;8.98;;;;;;;-145.61;100.00;68426.72;4996571;28;20029;-84
2021/01/08 10:35:11;;;;;;;15.43;9.57;;;;;;;-145.61;100.00;68426.72;4997368;28;20051;-84
2021/01/08 10:37:36;;;;;;;18.05;10.18;;;;;;;-145.61;100.00;68426.72;4998049;28;20015;-85
2021/01/08 10:40:02;;;;;;;15.75;9.88;;;;;;;-145.61;100.00;68426.72;4997013;28;20180;-84
2021/01/08 10:42:27;;;;;;;13.05;9.25;;;;;;;-145.61;100.00;68426.72;4996988;28;20030;-84
2021/01/08 10:44:53;;;;;;;12.23;9.10;;;;;;;-145.61;100.00;68426.72;4982826;28;20034;-84
2021/01/08 10:47:19;;;;;;;11.57;9.05;;;;;;;-145.61;100.00;68426.72;4977620;28;20031;-84
2021/01/08 10:49:44;;;;;;;16.45;10.85;;;;;;;-145.61;100.00;68426.72;4977427;28;20033;-84
2021/01/08 10:52:09;;;;;;;17.35;10.20;;;;;;;-145.61;100.00;68426.72;4985611;28;20035;-85
2021/01/08 10:54:35;;;;;;;16.05;11.30;;;;;;;-145.61;100.00;68426.72;4981474;28;20113;-84
2021/01/08 10:57:00;;;;;;;13.65;9.73;;;;;;;-145.61;100.00;68426.72;4978395;28;20427;-84
2021/01/08 10:59:26;;;;;;;11.63;8.00;;;;;;;-145.61;100.00;68426.72;4978229;28;20027;-84
2021/01/08 11:01:51;;;;;;;11.13;7.88;;;;;;;-145.61;100.00;68426.72;4990050;28;20080;-84
2021/01/08 11:04:16;;;;;;;12.05;7.97;;;;;;;-145.61;100.00;68426.72;4996301;28;20117;-83
2021/01/08 11:06:42;;;;;;;14.33;8.77;;;;;;;-145.61;100.00;68426.72;4996512;28;20026;-84
2021/01/08 11:09:08;;;;;;;13.98;8.73;;;;;;;-145.61;100.00;68426.72;4997205;28;20304;-84
2021/01/08 11:11:36;;;;;;;15.93;11.25;;;;;;;-145.61;100.00;68426.72;4988849;28;20173;-85
2021/01/08 11:14:02;;;;;;;14.02;9.20;;;;;;;-145.61;100.00;68426.72;4985117;28;20395;-84
2021/01/08 11:16:27;;;;;;;16.05;9.90;;;;;;;-145.61;100.00;68426.72;4996139;28;20034;-84
2021/01/08 11:18:53;;;;;;;14.32;10.02;;;;;;;-145.61;100.00;68426.72;4983572;28;20027;-84
2021/01/08 11:21:22;;;;;;;14.57;10.43;;;;;;;-145.61;100.00;68426.72;4984745;28;20314;-84